KSVN/SVN METAR and TAF weather

Enter ICAO airport designator
Station Type Date Time Source
KSVN METAR 2020/11/25 21:56 UTC NOAA

KSVN 252156Z AUTO 15006KT 10SM SCT055 23/16 A3015 RMK AO2 SLP213 T02310164 $


Station Type Date Time Source
KSVN Decoded METAR 2020/11/25 21:56 UTC NOAA

Hunter U. S. Army Airfield , GA, United States (KSVN) 32-01N 081-09W
Nov 25, 2020 - 04:56 PM EST / 2020.11.25 2156 UTC
Wind: from the SSE (150 degrees) at 7 MPH (6 KT):0
Visibility: 10 mile(s):0
Sky conditions: partly cloudy
Temperature: 73.6 F (23.1 C)
Dew Point: 61.5 F (16.4 C)
Relative Humidity: 65%
Pressure (altimeter): 30.15 in. Hg (1020 hPa)
ob: KSVN 252156Z AUTO 15006KT 10SM SCT055 23/16 A3015 RMK AO2 SLP213 T02310164
cycle: 22

Station Type Date Time Source
KSVN TAF 2020/11/25 21:07 UTC NOAA

TAF KSVN 252100Z 2521/2703 14009KT 9999 BKN070 QNH3008INS
BECMG 2609/2610 VRB06KT 9000 BR BKN020 QNH3015INS
BECMG 2611/2612 21006KT 9999 NSW BKN020 QNH3011INS
BECMG 2617/2618 23006KT 9999 BKN030 QNH3013INS
BECMG 2619/2620 22006KT 9000 -SHRA BKN030 QNH3009INS
TEMPO 2621/2703 22012KT 8000 -TSRA BKN025CB TX26/2521Z TN15/2613Z

Example: see airport list